createdAt,value
2022-11-20T00:03:08.739Z,13.93
2022-11-20T00:08:10.542Z,12.30
2022-11-20T00:13:13.622Z,13.17
2022-11-20T00:18:15.347Z,12.80
2022-11-20T00:23:17.113Z,12.47
2022-11-20T00:28:20.216Z,12.77
2022-11-20T00:33:22.070Z,14.03
2022-11-20T00:38:23.807Z,12.83
2022-11-20T00:43:27.012Z,12.43
2022-11-20T00:48:28.762Z,12.80
2022-11-20T00:53:30.596Z,13.97
2022-11-20T00:58:34.978Z,12.27
2022-11-20T01:03:37.911Z,13.03
2022-11-20T01:08:39.681Z,12.33
2022-11-20T01:13:43.296Z,12.63
2022-11-20T01:18:45.713Z,12.60
2022-11-20T01:23:47.881Z,13.53
2022-11-20T01:28:51.104Z,12.53
2022-11-20T01:33:53.836Z,12.60
2022-11-20T01:38:56.170Z,12.13
2022-11-20T01:43:59.253Z,12.40
2022-11-20T01:49:02.234Z,12.30
2022-11-20T01:54:05.516Z,12.73
2022-11-20T01:59:08.616Z,12.53
2022-11-20T02:04:10.385Z,13.10
2022-11-20T02:09:12.665Z,13.63
2022-11-20T02:14:15.763Z,13.37
2022-11-20T02:19:21.872Z,12.40
2022-11-20T02:24:25.226Z,13.13
2022-11-20T02:29:27.906Z,13.20
2022-11-20T02:34:29.861Z,12.73
2022-11-20T02:39:32.988Z,12.90
2022-11-20T02:44:34.734Z,12.70
2022-11-20T02:49:36.448Z,13.33
2022-11-20T02:54:39.537Z,12.10
2022-11-20T02:59:41.311Z,12.50
2022-11-20T03:04:43.048Z,12.67
2022-11-20T03:09:46.180Z,12.23
2022-11-20T03:14:52.812Z,13.17
2022-11-20T03:19:55.036Z,12.20
2022-11-20T03:24:58.247Z,12.07
2022-11-20T03:30:00.151Z,12.13
2022-11-20T03:35:01.928Z,11.87
2022-11-20T03:40:06.631Z,12.03
2022-11-20T03:45:09.272Z,11.63
2022-11-20T03:50:11.520Z,10.67
2022-11-20T03:55:14.770Z,11.47
2022-11-20T04:00:16.936Z,11.87
2022-11-20T04:05:18.682Z,11.10
2022-11-20T04:10:21.971Z,12.53
2022-11-20T04:15:23.766Z,11.83
2022-11-20T04:20:25.578Z,10.50
2022-11-20T04:25:29.090Z,10.73
2022-11-20T04:30:31.546Z,11.50
2022-11-20T04:35:34.763Z,10.83
2022-11-20T04:40:37.881Z,13.97
2022-11-20T04:45:39.619Z,11.17
2022-11-20T04:50:41.804Z,10.57
2022-11-20T04:55:44.897Z,11.83
2022-11-20T05:00:46.630Z,11.00
2022-11-20T05:05:48.371Z,12.03
2022-11-20T05:10:51.588Z,11.43
2022-11-20T05:15:53.322Z,10.83
2022-11-20T05:20:56.373Z,12.47
2022-11-20T05:25:59.876Z,11.83
2022-11-20T05:31:07.815Z,11.27
2022-11-20T05:36:10.362Z,11.73
2022-11-20T05:41:14.238Z,12.30
2022-11-20T05:46:17.129Z,12.30
2022-11-20T05:51:19.125Z,12.40
2022-11-20T05:56:22.464Z,11.77
2022-11-20T06:01:25.087Z,11.53
2022-11-20T06:06:26.936Z,11.60
2022-11-20T06:11:30.105Z,11.77
2022-11-20T06:16:31.855Z,11.87
2022-11-20T06:21:33.640Z,11.90
2022-11-20T06:26:37.155Z,11.43
2022-11-20T06:31:38.997Z,11.07
2022-11-20T06:36:40.754Z,11.07
2022-11-20T06:41:43.868Z,11.53
2022-11-20T06:46:45.689Z,12.30
2022-11-20T06:51:47.568Z,11.43
2022-11-20T06:56:50.792Z,11.03
2022-11-20T07:01:52.519Z,10.67
2022-11-20T07:06:54.290Z,11.27
2022-11-20T07:11:57.368Z,11.67
2022-11-20T07:16:59.150Z,10.70
2022-11-20T07:22:00.899Z,10.90
2022-11-20T07:27:04.945Z,10.53
2022-11-20T07:32:06.695Z,11.80
2022-11-20T07:37:10.523Z,10.17
2022-11-20T07:42:14.171Z,10.70
2022-11-20T07:47:15.900Z,10.00
2022-11-20T07:52:17.921Z,10.23
2022-11-20T07:57:25.657Z,10.93
2022-11-20T08:02:29.943Z,10.63
2022-11-20T08:07:36.897Z,10.93
2022-11-20T08:13:04.366Z,14.50
2022-11-20T08:23:28.951Z,11.30
2022-11-20T08:28:32.064Z,14.03
2022-11-20T08:33:33.806Z,13.37
2022-11-20T08:38:35.600Z,9.70
2022-11-20T08:43:38.999Z,9.00
2022-11-20T08:48:40.836Z,9.80
2022-11-20T08:53:42.581Z,8.93
2022-11-20T08:59:16.185Z,8.87
2022-11-20T09:04:07.568Z,7.40
2022-11-20T09:09:09.322Z,7.60
2022-11-20T09:14:12.723Z,7.60
2022-11-20T09:24:36.430Z,7.60
2022-11-20T09:29:39.583Z,7.60
2022-11-20T09:34:41.303Z,7.33
2022-11-20T09:39:43.065Z,7.83
2022-11-20T09:44:56.224Z,7.30
2022-11-20T09:50:03.477Z,7.63
2022-11-20T09:55:05.770Z,7.63
2022-11-20T10:00:13.007Z,7.30
2022-11-20T10:05:18.073Z,6.93
2022-11-20T10:10:25.659Z,7.53
2022-11-20T10:15:32.989Z,7.07
2022-11-20T10:20:41.218Z,7.67
2022-11-20T10:25:44.602Z,7.77
2022-11-20T10:30:47.851Z,7.80
2022-11-20T10:35:51.758Z,8.00
2022-11-20T10:40:55.193Z,8.40
2022-11-20T10:45:59.673Z,7.93
2022-11-20T10:51:10.239Z,8.13
2022-11-20T10:56:16.119Z,7.73
2022-11-20T11:01:23.158Z,7.83
2022-11-20T11:06:29.015Z,7.90
2022-11-20T11:11:32.117Z,8.30
2022-11-20T11:16:35.292Z,7.70
2022-11-20T11:21:42.251Z,8.33
2022-11-20T11:26:52.272Z,8.00
2022-11-20T11:32:06.254Z,8.40
2022-11-20T11:37:12.205Z,8.50
2022-11-20T11:42:14.557Z,9.10
2022-11-20T11:47:22.961Z,8.40
2022-11-20T11:52:24.819Z,7.30
2022-11-20T11:57:29.822Z,7.50
2022-11-20T12:02:38.463Z,8.90
2022-11-20T12:07:47.133Z,9.13
2022-11-20T12:12:52.432Z,9.60
2022-11-20T12:17:55.661Z,10.03
2022-11-20T12:23:01.193Z,9.67
2022-11-20T12:28:16.323Z,10.63
2022-11-20T12:33:31.865Z,12.73
2022-11-20T12:38:40.920Z,10.20
2022-11-20T12:44:03.198Z,8.87
2022-11-20T12:49:24.858Z,9.03
2022-11-20T12:54:50.782Z,9.87
2022-11-20T13:00:12.041Z,9.47
2022-11-20T13:05:19.977Z,11.90
2022-11-20T13:10:24.850Z,12.93
2022-11-20T13:15:41.201Z,9.40
2022-11-20T13:20:45.004Z,9.30
2022-11-20T13:25:47.802Z,8.73
2022-11-20T13:30:50.193Z,9.93
2022-11-20T13:35:57.800Z,8.67
2022-11-20T13:41:00.139Z,10.30
2022-11-20T13:46:02.551Z,6.17
2022-11-20T13:51:13.669Z,7.10
2022-11-20T13:56:19.648Z,5.90
2022-11-20T14:01:22.524Z,5.90
2022-11-20T14:06:28.131Z,6.20
2022-11-20T14:11:30.368Z,5.97
2022-11-20T14:16:33.020Z,6.10
2022-11-20T14:21:36.138Z,6.77
2022-11-20T14:26:37.975Z,6.87
2022-11-20T14:31:39.698Z,6.20
2022-11-20T14:36:42.857Z,6.77
2022-11-20T14:41:51.484Z,6.80
2022-11-20T14:46:53.220Z,6.10
2022-11-20T14:52:01.141Z,8.10
2022-11-20T14:57:04.444Z,7.23
2022-11-20T15:02:07.034Z,8.20
2022-11-20T15:07:10.475Z,8.90
2022-11-20T15:12:17.250Z,7.83
2022-11-20T15:17:19.032Z,8.60
2022-11-20T15:22:22.106Z,8.80
2022-11-20T15:27:23.856Z,11.20
2022-11-20T15:32:25.562Z,11.83
2022-11-20T15:37:30.072Z,9.50
2022-11-20T15:42:31.905Z,8.23
2022-11-20T15:47:34.621Z,8.17
2022-11-20T15:52:41.883Z,7.97
2022-11-20T15:57:44.097Z,8.43
2022-11-20T16:02:45.855Z,12.30
2022-11-20T16:07:48.954Z,35.83
2022-11-20T16:13:09.499Z,20.13
2022-11-20T16:18:11.455Z,11.40
2022-11-20T16:23:14.761Z,12.77
2022-11-20T16:28:19.039Z,9.97
2022-11-20T16:33:21.200Z,9.33
2022-11-20T16:38:24.292Z,9.23
2022-11-20T16:43:26.074Z,9.40
2022-11-20T16:48:27.754Z,11.07
2022-11-20T16:53:30.912Z,11.70
2022-11-20T16:58:32.619Z,10.03
2022-11-20T17:03:34.378Z,11.20
2022-11-20T17:08:37.587Z,11.00
2022-11-20T17:13:40.040Z,10.07
2022-11-20T17:18:41.964Z,9.63
2022-11-20T17:23:45.753Z,10.27
2022-11-20T17:28:52.547Z,11.03
2022-11-20T17:33:54.264Z,11.23
2022-11-20T17:38:57.340Z,16.43
2022-11-20T17:44:00.343Z,12.07
2022-11-20T17:49:02.206Z,12.73
2022-11-20T17:54:07.343Z,12.47
2022-11-20T17:59:09.935Z,13.03
2022-11-20T18:04:11.711Z,11.67
2022-11-20T18:09:15.178Z,12.17
2022-11-20T18:14:26.232Z,11.90
2022-11-20T18:19:32.649Z,13.10
2022-11-20T18:24:36.602Z,13.40
2022-11-20T18:29:38.374Z,13.37
2022-11-20T18:34:40.059Z,17.40
2022-11-20T18:39:43.260Z,20.10
2022-11-20T18:44:51.273Z,22.70
2022-11-20T18:49:53.711Z,25.33
2022-11-20T18:54:56.852Z,24.10
2022-11-20T19:00:04.846Z,25.97
2022-11-20T19:05:10.218Z,25.23
2022-11-20T19:10:13.336Z,21.03
2022-11-20T19:15:15.305Z,21.10
2022-11-20T19:20:18.944Z,19.47
2022-11-20T19:25:22.028Z,20.70
2022-11-20T19:30:23.733Z,21.23
2022-11-20T19:35:25.513Z,22.67
2022-11-20T19:40:28.561Z,21.37
2022-11-20T19:45:30.314Z,30.30
2022-11-20T19:50:32.059Z,32.37
2022-11-20T19:55:35.227Z,33.50
2022-11-20T20:00:37.004Z,34.73
2022-11-20T20:05:38.846Z,32.00
2022-11-20T20:10:41.954Z,28.67
2022-11-20T20:15:43.744Z,28.70
2022-11-20T20:20:45.457Z,27.10
2022-11-20T20:25:49.095Z,20.70
2022-11-20T20:30:50.874Z,22.20
2022-11-20T20:35:52.595Z,27.20
2022-11-20T20:40:55.674Z,27.03
2022-11-20T20:45:57.555Z,26.97
2022-11-20T20:51:00.133Z,21.80
2022-11-20T20:56:03.444Z,19.33
2022-11-20T21:01:06.323Z,18.80
2022-11-20T21:06:09.803Z,24.70
2022-11-20T21:11:13.821Z,23.67
2022-11-20T21:16:16.152Z,23.33
2022-11-20T21:21:36.671Z,19.33
2022-11-20T21:26:39.870Z,19.10
2022-11-20T21:31:41.587Z,22.23
2022-11-20T21:36:43.474Z,22.97
2022-11-20T21:41:46.565Z,23.20
2022-11-20T21:46:48.379Z,29.80
2022-11-20T21:51:50.139Z,19.53
2022-11-20T21:56:53.281Z,21.47
2022-11-20T22:01:55.106Z,22.23
2022-11-20T22:06:56.989Z,19.40
2022-11-20T22:12:00.299Z,16.47
2022-11-20T22:17:02.129Z,19.00
2022-11-20T22:22:03.884Z,17.57
2022-11-20T22:27:07.009Z,18.90
2022-11-20T22:32:08.783Z,19.87
2022-11-20T22:37:10.512Z,17.10
2022-11-20T22:42:13.614Z,16.27
2022-11-20T22:47:15.465Z,17.20
2022-11-20T22:52:17.221Z,16.83
2022-11-20T22:57:20.319Z,16.60
2022-11-20T23:02:22.094Z,17.40
2022-11-20T23:07:23.818Z,17.73
2022-11-20T23:12:26.940Z,17.40
2022-11-20T23:17:29.584Z,17.40
2022-11-20T23:22:31.795Z,17.17
2022-11-20T23:27:34.898Z,19.40
2022-11-20T23:32:36.740Z,20.67
2022-11-20T23:37:38.616Z,17.20
2022-11-20T23:43:01.699Z,16.93
2022-11-20T23:48:03.848Z,15.17
2022-11-20T23:53:05.795Z,15.80
2022-11-20T23:58:08.921Z,14.80
